createdAt,value
2023-07-06T00:00:34.514Z,20.70
2023-07-06T00:03:39.003Z,20.70
2023-07-06T00:06:41.441Z,20.80
2023-07-06T00:09:44.725Z,20.70
2023-07-06T00:12:47.071Z,20.60
2023-07-06T00:15:50.104Z,20.60
2023-07-06T00:19:01.654Z,20.70
2023-07-06T00:22:04.015Z,20.70
2023-07-06T00:25:06.499Z,20.60
2023-07-06T00:28:12.630Z,20.60
2023-07-06T00:31:22.452Z,20.60
2023-07-06T00:34:25.344Z,20.60
2023-07-06T00:37:27.759Z,20.60
2023-07-06T00:40:33.454Z,20.60
2023-07-06T00:43:54.025Z,20.60
2023-07-06T00:46:57.145Z,20.60
2023-07-06T00:50:04.252Z,20.60
2023-07-06T00:53:10.685Z,20.50
2023-07-06T00:56:18.669Z,20.50
2023-07-06T00:59:28.089Z,20.50
2023-07-06T01:02:31.970Z,20.50
2023-07-06T01:05:34.425Z,20.40
2023-07-06T01:08:36.815Z,20.40
2023-07-06T01:11:39.609Z,20.40
2023-07-06T01:14:42.834Z,20.40
2023-07-06T01:18:12.199Z,20.40
2023-07-06T01:21:29.584Z,20.40
2023-07-06T01:25:10.004Z,20.40
2023-07-06T01:28:47.599Z,20.40
2023-07-06T01:32:03.508Z,20.40
2023-07-06T01:35:34.020Z,20.30
2023-07-06T01:38:37.665Z,20.40
2023-07-06T01:41:41.609Z,20.30
2023-07-06T01:44:48.471Z,20.30
2023-07-06T01:47:59.100Z,20.30
2023-07-06T01:51:21.528Z,20.30
2023-07-06T01:54:32.216Z,20.30
2023-07-06T01:58:02.860Z,20.30
2023-07-06T02:01:10.004Z,20.30
2023-07-06T02:04:13.982Z,20.30
2023-07-06T02:07:17.790Z,20.30
2023-07-06T02:10:20.909Z,20.30
2023-07-06T02:13:23.623Z,20.40
2023-07-06T02:16:25.802Z,20.40
2023-07-06T02:19:28.027Z,20.40
2023-07-06T02:22:30.072Z,20.40
2023-07-06T02:25:33.747Z,20.40
2023-07-06T02:28:36.352Z,20.40
2023-07-06T02:31:38.570Z,20.40
2023-07-06T02:34:40.757Z,20.40
2023-07-06T02:37:44.320Z,20.40
2023-07-06T02:40:47.506Z,20.40
2023-07-06T02:43:50.648Z,20.40
2023-07-06T02:46:53.327Z,20.40
2023-07-06T02:49:55.448Z,20.50
2023-07-06T02:52:58.170Z,20.60
2023-07-06T02:56:00.218Z,20.50
2023-07-06T02:59:02.360Z,20.60
2023-07-06T03:02:05.034Z,20.60
2023-07-06T03:05:07.580Z,20.50
2023-07-06T03:08:09.713Z,20.50
2023-07-06T03:11:12.232Z,20.50
2023-07-06T03:14:14.464Z,20.50
2023-07-06T03:17:16.607Z,20.60
2023-07-06T03:20:20.809Z,20.60
2023-07-06T03:23:23.291Z,20.60
2023-07-06T03:26:25.593Z,20.60
2023-07-06T03:29:27.789Z,20.60
2023-07-06T03:32:30.830Z,20.60
2023-07-06T03:35:33.010Z,20.60
2023-07-06T03:38:37.741Z,20.60
2023-07-06T03:41:40.869Z,20.60
2023-07-06T03:44:44.482Z,20.60
2023-07-06T03:47:47.271Z,20.60
2023-07-06T03:50:53.985Z,20.60
2023-07-06T03:53:57.087Z,20.60
2023-07-06T03:56:59.209Z,20.50
2023-07-06T04:00:01.437Z,20.30
2023-07-06T04:03:06.292Z,20.30
2023-07-06T04:06:09.929Z,20.30
2023-07-06T04:09:12.526Z,20.40
2023-07-06T04:12:14.621Z,20.30
2023-07-06T04:15:23.674Z,20.30
2023-07-06T04:18:26.481Z,20.30
2023-07-06T04:21:29.531Z,20.40
2023-07-06T04:24:33.076Z,20.40
2023-07-06T04:27:35.199Z,20.40
2023-07-06T04:30:39.610Z,20.40
2023-07-06T04:33:43.010Z,20.40
2023-07-06T04:36:47.081Z,20.40
2023-07-06T04:39:49.150Z,20.40
2023-07-06T04:42:52.427Z,20.50
2023-07-06T04:45:57.249Z,20.50
2023-07-06T04:49:03.054Z,20.60
2023-07-06T04:52:05.959Z,20.60
2023-07-06T04:55:09.855Z,20.70
2023-07-06T04:58:12.669Z,20.70
2023-07-06T05:01:16.241Z,20.70
2023-07-06T05:04:18.962Z,20.70
2023-07-06T05:07:21.156Z,20.70
2023-07-06T05:10:23.896Z,20.70
2023-07-06T05:13:26.448Z,20.70
2023-07-06T05:16:28.599Z,20.80
2023-07-06T05:19:30.824Z,20.70
2023-07-06T05:22:39.726Z,20.70
2023-07-06T05:25:41.791Z,20.60
2023-07-06T05:28:44.012Z,20.60
2023-07-06T05:31:47.435Z,20.60
2023-07-06T05:34:49.516Z,20.60
2023-07-06T05:37:52.603Z,20.50
2023-07-06T05:40:54.710Z,20.50
2023-07-06T05:43:57.025Z,20.40
2023-07-06T05:47:00.968Z,20.50
2023-07-06T05:50:09.709Z,20.60
2023-07-06T05:53:11.824Z,20.70
2023-07-06T05:56:14.404Z,20.80
2023-07-06T05:59:16.540Z,20.70
2023-07-06T06:02:21.951Z,20.80
2023-07-06T06:05:25.847Z,20.80
2023-07-06T06:08:28.223Z,20.90
2023-07-06T06:11:30.316Z,20.80
2023-07-06T06:14:33.245Z,21.00
2023-07-06T06:17:35.966Z,21.20
2023-07-06T06:20:38.680Z,21.50
2023-07-06T06:23:43.462Z,21.90
2023-07-06T06:26:45.931Z,22.10
2023-07-06T06:29:48.264Z,22.30
2023-07-06T06:32:50.423Z,22.30
2023-07-06T06:35:53.295Z,22.40
2023-07-06T06:38:56.952Z,22.40
2023-07-06T06:42:01.625Z,22.30
2023-07-06T06:45:03.801Z,22.20
2023-07-06T06:48:06.605Z,22.10
2023-07-06T06:51:10.903Z,22.20
2023-07-06T06:54:12.982Z,22.20
2023-07-06T06:57:17.850Z,22.20
2023-07-06T07:00:20.338Z,22.30
2023-07-06T07:03:22.773Z,22.50
2023-07-06T07:06:26.369Z,22.50
2023-07-06T07:09:29.684Z,23.10
2023-07-06T07:12:31.964Z,23.90
2023-07-06T07:15:34.188Z,24.80
2023-07-06T07:18:36.384Z,25.70
2023-07-06T07:21:40.393Z,26.30
2023-07-06T07:24:43.277Z,26.70
2023-07-06T07:27:47.066Z,27.30
2023-07-06T07:30:59.599Z,27.30
2023-07-06T07:34:02.863Z,27.60
2023-07-06T07:37:06.956Z,28.10
2023-07-06T07:40:17.298Z,28.10
2023-07-06T07:43:19.495Z,28.50
2023-07-06T07:46:22.209Z,28.70
2023-07-06T07:49:25.928Z,29.00
2023-07-06T07:52:29.980Z,29.30
2023-07-06T07:55:33.123Z,29.30
2023-07-06T07:58:38.746Z,29.90
2023-07-06T08:01:42.687Z,30.40
2023-07-06T08:04:45.818Z,30.60
2023-07-06T08:07:48.867Z,30.80
2023-07-06T08:10:52.411Z,31.10
2023-07-06T08:13:57.243Z,31.70
2023-07-06T08:16:59.660Z,31.30
2023-07-06T08:20:42.840Z,31.70
2023-07-06T08:23:25.695Z,31.40
2023-07-06T08:26:32.863Z,31.80
2023-07-06T08:29:35.173Z,31.90
2023-07-06T08:32:37.424Z,32.30
2023-07-06T08:35:46.923Z,32.40
2023-07-06T08:38:49.345Z,32.40
2023-07-06T08:41:55.182Z,32.70
2023-07-06T08:44:58.801Z,32.60
2023-07-06T08:48:01.743Z,32.50
2023-07-06T08:51:23.474Z,32.20
2023-07-06T08:54:26.955Z,32.00
2023-07-06T08:57:32.028Z,32.40
2023-07-06T09:00:34.273Z,33.20
2023-07-06T09:03:46.353Z,33.50
2023-07-06T09:06:54.003Z,33.60
2023-07-06T09:10:06.925Z,34.30
2023-07-06T09:13:27.565Z,34.20
2023-07-06T09:16:30.019Z,34.30
2023-07-06T09:19:33.690Z,34.20
2023-07-06T09:22:35.934Z,34.30
2023-07-06T09:25:43.953Z,34.80
2023-07-06T09:28:46.268Z,34.50
2023-07-06T09:31:49.199Z,34.20
2023-07-06T09:34:56.515Z,34.80
2023-07-06T09:38:00.118Z,34.90
2023-07-06T09:41:02.833Z,35.00
2023-07-06T09:44:05.640Z,35.20
2023-07-06T09:47:13.109Z,35.50
2023-07-06T09:50:24.880Z,35.60
2023-07-06T09:53:50.129Z,34.90
2023-07-06T09:56:52.393Z,35.30
2023-07-06T09:59:55.042Z,34.90
2023-07-06T10:03:01.085Z,34.50
2023-07-06T10:06:18.567Z,34.50
2023-07-06T10:09:27.370Z,35.60
2023-07-06T10:12:48.694Z,35.90
2023-07-06T10:16:07.542Z,36.40
2023-07-06T10:19:30.825Z,36.70
2023-07-06T10:22:42.182Z,36.20
2023-07-06T10:25:55.164Z,36.20
2023-07-06T10:29:18.129Z,36.50
2023-07-06T10:32:27.465Z,36.90
2023-07-06T10:35:34.066Z,37.60
2023-07-06T10:38:36.543Z,37.80
2023-07-06T10:41:45.298Z,37.60
2023-07-06T10:44:54.500Z,37.40
2023-07-06T10:48:27.725Z,37.30
2023-07-06T10:51:30.590Z,36.60
2023-07-06T10:54:34.297Z,36.90
2023-07-06T10:57:37.751Z,36.80
2023-07-06T11:00:45.692Z,36.20
2023-07-06T11:03:48.877Z,36.90
2023-07-06T11:06:54.653Z,37.00
2023-07-06T11:10:15.161Z,37.20
2023-07-06T11:13:27.095Z,36.70
2023-07-06T11:16:50.555Z,36.80
2023-07-06T11:20:18.104Z,36.90
2023-07-06T11:23:37.102Z,36.60
2023-07-06T11:26:56.226Z,36.00
2023-07-06T11:30:16.636Z,35.70
2023-07-06T11:33:26.025Z,35.30
2023-07-06T11:36:41.222Z,34.80
2023-07-06T11:39:58.065Z,34.40
2023-07-06T11:43:11.300Z,34.40
2023-07-06T11:46:21.055Z,34.20
2023-07-06T11:49:26.282Z,34.10
2023-07-06T11:52:34.045Z,33.50
2023-07-06T11:55:51.616Z,33.10
2023-07-06T11:58:57.269Z,32.50
2023-07-06T12:01:59.386Z,32.70
2023-07-06T12:05:01.711Z,32.30
2023-07-06T12:08:17.686Z,32.20
2023-07-06T12:11:23.904Z,32.50
2023-07-06T12:14:28.503Z,32.50
2023-07-06T12:17:33.783Z,32.50
2023-07-06T12:20:44.518Z,32.30
2023-07-06T12:23:46.751Z,31.60
2023-07-06T12:26:52.591Z,31.20
2023-07-06T12:30:07.915Z,31.20
2023-07-06T12:33:18.186Z,31.30
2023-07-06T12:36:22.873Z,31.00
2023-07-06T12:39:26.488Z,30.70
2023-07-06T12:42:30.040Z,30.60
2023-07-06T12:45:33.391Z,30.50
2023-07-06T12:48:35.530Z,30.50
2023-07-06T12:51:41.513Z,30.10
2023-07-06T12:54:54.172Z,30.10
2023-07-06T12:57:56.366Z,30.20
2023-07-06T13:01:22.763Z,30.40
2023-07-06T13:04:26.485Z,30.20
2023-07-06T13:07:30.319Z,30.00
2023-07-06T13:10:33.551Z,29.90
2023-07-06T13:13:38.918Z,30.00
2023-07-06T13:16:42.924Z,30.10
2023-07-06T13:19:47.327Z,29.80
2023-07-06T13:22:50.364Z,29.60
2023-07-06T13:25:54.282Z,29.50
2023-07-06T13:28:57.500Z,29.70
2023-07-06T13:32:00.393Z,29.60
2023-07-06T13:35:23.825Z,29.60
2023-07-06T13:38:29.632Z,29.20
2023-07-06T13:41:32.066Z,29.10
2023-07-06T13:44:34.270Z,29.40
2023-07-06T13:47:38.353Z,29.60
2023-07-06T13:50:42.496Z,29.40
2023-07-06T13:53:48.444Z,29.50
2023-07-06T13:56:50.500Z,29.50
2023-07-06T13:59:52.900Z,29.50
2023-07-06T14:02:56.118Z,29.60
2023-07-06T14:05:59.061Z,29.70
2023-07-06T14:09:03.660Z,29.70
2023-07-06T14:12:08.276Z,29.70
2023-07-06T14:15:11.711Z,29.60
2023-07-06T14:18:15.847Z,29.70
2023-07-06T14:21:25.476Z,29.90
2023-07-06T14:24:27.531Z,30.00
2023-07-06T14:27:31.048Z,30.10
2023-07-06T14:30:34.917Z,29.90
2023-07-06T14:33:37.166Z,30.00
2023-07-06T14:36:39.616Z,30.00
2023-07-06T14:39:41.912Z,30.00
2023-07-06T14:42:53.212Z,30.00
2023-07-06T14:45:55.578Z,29.90
2023-07-06T14:48:57.943Z,29.80
2023-07-06T14:52:01.928Z,29.70
2023-07-06T14:55:07.070Z,29.60
2023-07-06T14:58:09.646Z,29.50
2023-07-06T15:01:13.729Z,29.60
2023-07-06T15:04:15.930Z,29.70
2023-07-06T15:07:18.296Z,29.60
2023-07-06T15:10:20.610Z,29.60
2023-07-06T15:13:22.822Z,29.50
2023-07-06T15:16:25.180Z,29.60
2023-07-06T15:19:27.558Z,29.50
2023-07-06T15:22:29.750Z,29.50
2023-07-06T15:25:31.901Z,29.40
2023-07-06T15:28:34.053Z,29.40
2023-07-06T15:31:36.214Z,29.30
2023-07-06T15:34:45.251Z,29.40
2023-07-06T15:37:58.184Z,29.30
2023-07-06T15:41:01.361Z,29.20
2023-07-06T15:44:04.209Z,29.20
2023-07-06T15:47:07.510Z,29.30
2023-07-06T15:50:11.928Z,29.20
2023-07-06T15:53:15.214Z,29.20
2023-07-06T15:56:20.201Z,29.40
2023-07-06T15:59:23.181Z,29.50
2023-07-06T16:02:25.390Z,29.50
2023-07-06T16:05:28.190Z,29.60
2023-07-06T16:08:30.323Z,29.60
2023-07-06T16:11:35.526Z,29.50
2023-07-06T16:14:37.998Z,29.40
2023-07-06T16:17:40.770Z,29.20
2023-07-06T16:20:51.549Z,29.20
2023-07-06T16:23:53.736Z,28.90
2023-07-06T16:26:56.711Z,28.80
2023-07-06T16:29:58.836Z,28.60
2023-07-06T16:33:01.058Z,28.60
2023-07-06T16:36:05.878Z,28.50
2023-07-06T16:39:08.146Z,28.50
2023-07-06T16:42:14.770Z,28.50
2023-07-06T16:45:16.919Z,28.20
2023-07-06T16:48:22.240Z,28.00
2023-07-06T16:51:25.679Z,27.90
2023-07-06T16:54:28.077Z,27.80
2023-07-06T16:57:30.295Z,27.80
2023-07-06T17:00:32.650Z,27.70
2023-07-06T17:03:35.492Z,27.60
2023-07-06T17:06:37.641Z,27.60
2023-07-06T17:09:39.791Z,27.50
2023-07-06T17:12:42.002Z,27.30
2023-07-06T17:15:47.904Z,27.20
2023-07-06T17:18:50.986Z,27.20
2023-07-06T17:21:53.155Z,27.10
2023-07-06T17:24:55.321Z,26.90
2023-07-06T17:27:57.390Z,26.60
2023-07-06T17:31:14.774Z,26.50
2023-07-06T17:34:17.109Z,26.30
2023-07-06T17:37:19.532Z,26.30
2023-07-06T17:40:21.701Z,26.40
2023-07-06T17:43:24.318Z,26.40
2023-07-06T17:46:26.603Z,26.40
2023-07-06T17:49:29.138Z,26.30
2023-07-06T17:52:31.269Z,26.20
2023-07-06T17:55:33.445Z,26.20
2023-07-06T17:58:35.750Z,26.20
2023-07-06T18:01:37.968Z,26.00
2023-07-06T18:04:40.486Z,26.00
2023-07-06T18:07:43.806Z,25.90
2023-07-06T18:10:47.105Z,25.90
2023-07-06T18:13:49.594Z,25.90
2023-07-06T18:16:52.052Z,26.00
2023-07-06T18:19:54.685Z,25.90
2023-07-06T18:22:56.910Z,25.80
2023-07-06T18:26:02.777Z,25.60
2023-07-06T18:29:06.806Z,25.60
2023-07-06T18:32:09.365Z,25.60
2023-07-06T18:35:11.598Z,25.50
2023-07-06T18:38:13.973Z,25.40
2023-07-06T18:41:16.294Z,25.40
2023-07-06T18:44:18.829Z,25.30
2023-07-06T18:47:21.114Z,25.20
2023-07-06T18:50:25.650Z,25.30
2023-07-06T18:53:40.620Z,25.30
2023-07-06T18:56:48.326Z,25.30
2023-07-06T18:59:52.020Z,25.30
2023-07-06T19:02:54.360Z,25.20
2023-07-06T19:05:56.992Z,25.10
2023-07-06T19:08:59.511Z,25.00
2023-07-06T19:12:01.892Z,25.00
2023-07-06T19:15:04.306Z,24.80
2023-07-06T19:18:06.511Z,24.70
2023-07-06T19:21:14.001Z,24.50
2023-07-06T19:24:17.070Z,24.50
2023-07-06T19:27:19.353Z,24.40
2023-07-06T19:30:21.499Z,24.20
2023-07-06T19:33:23.704Z,24.00
2023-07-06T19:36:26.015Z,23.90
2023-07-06T19:39:28.280Z,23.90
2023-07-06T19:42:30.380Z,23.80
2023-07-06T19:45:35.227Z,23.70
2023-07-06T19:51:53.927Z,23.50
2023-07-06T19:54:57.416Z,23.40
2023-07-06T19:58:00.655Z,23.30
2023-07-06T20:01:07.871Z,23.20
2023-07-06T20:04:11.556Z,23.00
2023-07-06T20:07:15.632Z,22.90
2023-07-06T20:10:18.196Z,22.80
2023-07-06T20:13:20.316Z,22.90
2023-07-06T20:16:22.677Z,22.80
2023-07-06T20:19:25.562Z,22.70
2023-07-06T20:22:28.169Z,22.70
2023-07-06T20:25:32.963Z,22.60
2023-07-06T20:28:35.159Z,22.50
2023-07-06T20:31:37.215Z,22.50
2023-07-06T20:34:40.436Z,22.40
2023-07-06T20:37:44.675Z,22.40
2023-07-06T20:40:46.932Z,22.40
2023-07-06T20:43:49.208Z,22.30
2023-07-06T20:46:52.011Z,22.30
2023-07-06T20:49:54.328Z,22.20
2023-07-06T20:52:57.980Z,22.10
2023-07-06T20:56:00.163Z,22.00
2023-07-06T20:59:02.476Z,21.90
2023-07-06T21:02:04.838Z,21.70
2023-07-06T21:05:07.238Z,21.70
2023-07-06T21:08:09.336Z,21.60
2023-07-06T21:11:12.276Z,21.60
2023-07-06T21:14:19.572Z,21.60
2023-07-06T21:17:21.760Z,21.60
2023-07-06T21:20:23.906Z,21.60
2023-07-06T21:23:29.393Z,21.60
2023-07-06T21:26:32.931Z,21.50
2023-07-06T21:29:36.570Z,21.40
2023-07-06T21:32:39.089Z,21.40
2023-07-06T21:35:42.188Z,21.30
2023-07-06T21:38:48.348Z,21.30
2023-07-06T21:41:51.388Z,21.30
2023-07-06T21:44:53.713Z,21.20
2023-07-06T21:47:55.878Z,21.30
2023-07-06T21:50:59.032Z,21.20
2023-07-06T21:54:01.472Z,21.20
2023-07-06T21:57:04.105Z,21.20
2023-07-06T22:00:12.264Z,21.20
2023-07-06T22:03:16.579Z,21.10
2023-07-06T22:06:21.110Z,21.10
2023-07-06T22:09:23.709Z,21.00
2023-07-06T22:12:26.448Z,21.00
2023-07-06T22:15:34.648Z,20.90
2023-07-06T22:18:39.211Z,20.90
2023-07-06T22:21:42.604Z,20.90
2023-07-06T22:24:45.064Z,20.90
2023-07-06T22:27:47.347Z,20.90
2023-07-06T22:31:01.358Z,20.90
2023-07-06T22:34:04.175Z,20.90
2023-07-06T22:37:06.678Z,21.00
2023-07-06T22:40:09.755Z,20.80
2023-07-06T22:43:12.301Z,20.80
2023-07-06T22:46:14.498Z,20.80
2023-07-06T22:49:16.732Z,20.80
2023-07-06T22:52:18.869Z,20.70
2023-07-06T22:55:21.911Z,20.80
2023-07-06T22:58:24.039Z,20.70
2023-07-06T23:01:26.289Z,20.70
2023-07-06T23:04:28.475Z,20.70
2023-07-06T23:07:30.713Z,20.70
2023-07-06T23:10:34.012Z,20.70
2023-07-06T23:13:56.707Z,20.70
2023-07-06T23:16:59.174Z,20.60
2023-07-06T23:20:07.882Z,20.60
2023-07-06T23:23:11.152Z,20.60
2023-07-06T23:26:15.538Z,20.50
2023-07-06T23:29:18.588Z,20.50
2023-07-06T23:32:22.921Z,20.60
2023-07-06T23:35:25.062Z,20.60
2023-07-06T23:38:27.217Z,20.50
2023-07-06T23:41:31.087Z,20.50
2023-07-06T23:44:33.191Z,20.60
2023-07-06T23:47:35.788Z,20.60
2023-07-06T23:50:39.775Z,20.50
2023-07-06T23:53:42.656Z,20.60
2023-07-06T23:56:44.803Z,20.60
2023-07-06T23:59:47.295Z,20.60
